sensor_id;sensor_type;location;lat;lon;timestamp;pressure;altitude;pressure_sealevel;temperature;humidity
72409;BME280;60402;48.082;11.628;2023-02-18T00:00:08;96196.47;;;10.77;82.42
72409;BME280;60402;48.082;11.628;2023-02-18T00:02:35;96180.59;;;10.63;82.91
72409;BME280;60402;48.082;11.628;2023-02-18T00:05:01;96209.28;;;10.85;83.03
72409;BME280;60402;48.082;11.628;2023-02-18T00:07:26;96194.88;;;10.76;83.09
72409;BME280;60402;48.082;11.628;2023-02-18T00:09:52;96177.75;;;10.63;83.28
72409;BME280;60402;48.082;11.628;2023-02-18T00:12:17;96179.88;;;10.56;83.57
72409;BME280;60402;48.082;11.628;2023-02-18T00:14:42;96187.97;;;10.54;84.19
72409;BME280;60402;48.082;11.628;2023-02-18T00:17:08;96199.13;;;10.64;84.59
72409;BME280;60402;48.082;11.628;2023-02-18T00:19:33;96200.53;;;10.76;83.99
72409;BME280;60402;48.082;11.628;2023-02-18T00:21:58;96180.72;;;10.53;84.84
72409;BME280;60402;48.082;11.628;2023-02-18T00:24:23;96184.75;;;10.55;84.95
72409;BME280;60402;48.082;11.628;2023-02-18T00:26:52;96176.78;;;10.46;85.33
72409;BME280;60402;48.082;11.628;2023-02-18T00:29:18;96181.53;;;10.53;85.18
72409;BME280;60402;48.082;11.628;2023-02-18T00:31:44;96173.84;;;10.54;85.67
72409;BME280;60402;48.082;11.628;2023-02-18T00:34:11;96185.88;;;10.58;85.58
72409;BME280;60402;48.082;11.628;2023-02-18T00:36:36;96188.94;;;10.43;86.56
72409;BME280;60402;48.082;11.628;2023-02-18T00:39:05;96189.81;;;10.40;86.78
72409;BME280;60402;48.082;11.628;2023-02-18T00:41:31;96179.94;;;10.52;85.83
72409;BME280;60402;48.082;11.628;2023-02-18T00:43:57;96188.84;;;10.51;86.36
72409;BME280;60402;48.082;11.628;2023-02-18T00:46:23;96176.09;;;10.39;86.65
72409;BME280;60402;48.082;11.628;2023-02-18T00:48:49;96181.97;;;10.52;86.65
72409;BME280;60402;48.082;11.628;2023-02-18T00:51:14;96190.78;;;10.54;86.63
72409;BME280;60402;48.082;11.628;2023-02-18T00:53:40;96168.75;;;10.45;86.46
72409;BME280;60402;48.082;11.628;2023-02-18T00:56:06;96154.50;;;10.25;86.66
72409;BME280;60402;48.082;11.628;2023-02-18T00:58:33;96191.41;;;10.41;87.98
72409;BME280;60402;48.082;11.628;2023-02-18T01:00:58;96150.09;;;10.20;88.44
72409;BME280;60402;48.082;11.628;2023-02-18T01:03:23;96160.94;;;10.26;88.88
72409;BME280;60402;48.082;11.628;2023-02-18T01:05:50;96170.81;;;10.41;88.40
72409;BME280;60402;48.082;11.628;2023-02-18T01:08:17;96195.66;;;10.53;89.11
72409;BME280;60402;48.082;11.628;2023-02-18T01:10:44;96191.53;;;10.58;89.09
72409;BME280;60402;48.082;11.628;2023-02-18T01:13:10;96151.63;;;10.29;89.57
72409;BME280;60402;48.082;11.628;2023-02-18T01:15:37;96160.63;;;10.47;89.03
72409;BME280;60402;48.082;11.628;2023-02-18T01:18:03;96175.94;;;10.49;89.45
72409;BME280;60402;48.082;11.628;2023-02-18T01:20:29;96181.28;;;10.67;88.69
72409;BME280;60402;48.082;11.628;2023-02-18T01:22:54;96145.66;;;10.50;88.73
72409;BME280;60402;48.082;11.628;2023-02-18T01:25:20;96158.16;;;10.49;89.32
72409;BME280;60402;48.082;11.628;2023-02-18T01:27:45;96151.31;;;10.50;89.06
72409;BME280;60402;48.082;11.628;2023-02-18T01:30:13;96170.78;;;10.68;89.45
72409;BME280;60402;48.082;11.628;2023-02-18T01:32:39;96157.72;;;10.54;89.91
72409;BME280;60402;48.082;11.628;2023-02-18T01:35:06;96149.34;;;10.47;90.10
72409;BME280;60402;48.082;11.628;2023-02-18T01:37:32;96141.38;;;10.38;90.60
72409;BME280;60402;48.082;11.628;2023-02-18T01:39:58;96163.59;;;10.40;91.22
72409;BME280;60402;48.082;11.628;2023-02-18T01:42:27;96140.41;;;10.21;91.38
72409;BME280;60402;48.082;11.628;2023-02-18T01:44:53;96138.75;;;10.28;90.80
72409;BME280;60402;48.082;11.628;2023-02-18T01:47:19;96137.50;;;10.29;91.65
72409;BME280;60402;48.082;11.628;2023-02-18T01:49:49;96149.66;;;10.26;91.68
72409;BME280;60402;48.082;11.628;2023-02-18T01:52:22;96173.97;;;10.46;91.37
72409;BME280;60402;48.082;11.628;2023-02-18T01:54:51;96170.69;;;10.48;91.54
72409;BME280;60402;48.082;11.628;2023-02-18T01:57:22;96139.97;;;10.27;91.59
72409;BME280;60402;48.082;11.628;2023-02-18T01:59:51;96171.50;;;10.48;91.61
72409;BME280;60402;48.082;11.628;2023-02-18T02:02:20;96149.88;;;10.38;91.36
72409;BME280;60402;48.082;11.628;2023-02-18T02:04:47;96132.25;;;10.31;90.85
72409;BME280;60402;48.082;11.628;2023-02-18T02:07:14;96176.66;;;10.54;91.13
72409;BME280;60402;48.082;11.628;2023-02-18T02:09:40;96158.56;;;10.51;90.40
72409;BME280;60402;48.082;11.628;2023-02-18T02:17:43;96161.34;;;10.55;90.72
72409;BME280;60402;48.082;11.628;2023-02-18T02:39:56;96157.84;;;10.70;91.94
72409;BME280;60402;48.082;11.628;2023-02-18T02:45:13;96124.25;;;10.49;92.79
72409;BME280;60402;48.082;11.628;2023-02-18T02:47:48;96147.56;;;10.80;92.54
72409;BME280;60402;48.082;11.628;2023-02-18T02:50:36;96122.88;;;10.61;93.59
72409;BME280;60402;48.082;11.628;2023-02-18T02:53:11;96116.72;;;10.66;93.34
72409;BME280;60402;48.082;11.628;2023-02-18T02:55:38;96128.81;;;10.66;93.73
72409;BME280;60402;48.082;11.628;2023-02-18T02:58:03;96120.03;;;10.61;94.05
72409;BME280;60402;48.082;11.628;2023-02-18T03:11:04;96115.69;;;10.80;93.61
72409;BME280;60402;48.082;11.628;2023-02-18T03:14:06;96085.94;;;10.48;94.57
72409;BME280;60402;48.082;11.628;2023-02-18T03:16:40;96095.78;;;10.63;93.39
72409;BME280;60402;48.082;11.628;2023-02-18T03:19:21;96109.53;;;10.61;94.00
72409;BME280;60402;48.082;11.628;2023-02-18T03:21:55;96079.06;;;10.49;93.33
72409;BME280;60402;48.082;11.628;2023-02-18T03:24:31;96110.22;;;10.69;93.47
72409;BME280;60402;48.082;11.628;2023-02-18T03:27:04;96106.91;;;10.74;92.95
72409;BME280;60402;48.082;11.628;2023-02-18T03:29:30;96092.38;;;10.48;94.66
72409;BME280;60402;48.082;11.628;2023-02-18T03:31:59;96124.09;;;10.83;92.92
72409;BME280;60402;48.082;11.628;2023-02-18T03:34:29;96128.97;;;10.83;93.32
72409;BME280;60402;48.082;11.628;2023-02-18T03:36:55;96134.00;;;10.71;94.33
72409;BME280;60402;48.082;11.628;2023-02-18T03:39:24;96123.38;;;10.79;93.44
72409;BME280;60402;48.082;11.628;2023-02-18T03:41:50;96136.16;;;10.87;92.71
72409;BME280;60402;48.082;11.628;2023-02-18T03:44:15;96097.63;;;10.73;92.34
72409;BME280;60402;48.082;11.628;2023-02-18T03:46:42;96118.50;;;10.80;92.68
72409;BME280;60402;48.082;11.628;2023-02-18T03:49:09;96096.00;;;10.72;92.79
72409;BME280;60402;48.082;11.628;2023-02-18T03:51:35;96123.06;;;10.73;93.91
72409;BME280;60402;48.082;11.628;2023-02-18T03:54:00;96056.78;;;10.31;93.54
72409;BME280;60402;48.082;11.628;2023-02-18T03:56:26;96069.91;;;10.41;93.53
72409;BME280;60402;48.082;11.628;2023-02-18T03:58:51;96071.44;;;10.46;93.54
72409;BME280;60402;48.082;11.628;2023-02-18T04:01:16;96083.34;;;10.34;94.58
72409;BME280;60402;48.082;11.628;2023-02-18T04:03:43;96079.94;;;10.46;94.17
72409;BME280;60402;48.082;11.628;2023-02-18T04:06:09;96108.25;;;10.66;94.35
72409;BME280;60402;48.082;11.628;2023-02-18T04:08:34;96103.13;;;10.57;94.31
72409;BME280;60402;48.082;11.628;2023-02-18T04:11:00;96098.38;;;10.54;94.86
72409;BME280;60402;48.082;11.628;2023-02-18T04:13:26;96086.47;;;10.39;95.20
72409;BME280;60402;48.082;11.628;2023-02-18T04:15:51;96097.97;;;10.52;95.52
72409;BME280;60402;48.082;11.628;2023-02-18T04:18:17;96113.16;;;10.62;94.71
72409;BME280;60402;48.082;11.628;2023-02-18T04:20:43;96087.41;;;10.56;94.04
72409;BME280;60402;48.082;11.628;2023-02-18T04:23:08;96056.03;;;10.23;95.25
72409;BME280;60402;48.082;11.628;2023-02-18T04:25:34;96044.06;;;10.16;95.15
72409;BME280;60402;48.082;11.628;2023-02-18T04:27:59;96111.63;;;10.57;94.98
72409;BME280;60402;48.082;11.628;2023-02-18T04:30:24;96025.66;;;10.08;94.20
72409;BME280;60402;48.082;11.628;2023-02-18T04:32:50;96112.75;;;10.63;94.22
72409;BME280;60402;48.082;11.628;2023-02-18T04:35:15;96039.03;;;10.04;94.88
72409;BME280;60402;48.082;11.628;2023-02-18T04:37:40;96117.47;;;10.46;95.01
72409;BME280;60402;48.082;11.628;2023-02-18T04:40:06;96118.41;;;10.63;94.25
72409;BME280;60402;48.082;11.628;2023-02-18T04:42:33;96084.47;;;10.40;94.06
72409;BME280;60402;48.082;11.628;2023-02-18T04:44:58;96117.28;;;10.57;93.79
72409;BME280;60402;48.082;11.628;2023-02-18T04:47:23;96100.06;;;10.48;93.75
72409;BME280;60402;48.082;11.628;2023-02-18T04:49:48;96031.34;;;10.04;93.53
72409;BME280;60402;48.082;11.628;2023-02-18T04:52:14;96097.78;;;10.39;94.01
72409;BME280;60402;48.082;11.628;2023-02-18T04:54:39;96095.56;;;10.27;93.92
72409;BME280;60402;48.082;11.628;2023-02-18T04:57:05;96024.22;;;9.96;93.04
72409;BME280;60402;48.082;11.628;2023-02-18T04:59:30;96103.50;;;10.36;93.80
72409;BME280;60402;48.082;11.628;2023-02-18T05:01:55;96120.34;;;10.43;93.48
72409;BME280;60402;48.082;11.628;2023-02-18T05:04:21;96064.16;;;10.21;93.26
72409;BME280;60402;48.082;11.628;2023-02-18T05:06:46;96114.31;;;10.41;93.46
72409;BME280;60402;48.082;11.628;2023-02-18T05:09:12;96123.06;;;10.50;93.05
72409;BME280;60402;48.082;11.628;2023-02-18T05:11:37;96134.34;;;10.50;92.61
72409;BME280;60402;48.082;11.628;2023-02-18T05:14:03;96086.31;;;10.23;92.70
72409;BME280;60402;48.082;11.628;2023-02-18T05:16:28;96108.13;;;10.49;92.36
72409;BME280;60402;48.082;11.628;2023-02-18T05:18:54;96071.31;;;10.30;91.77
72409;BME280;60402;48.082;11.628;2023-02-18T05:21:19;96044.88;;;10.16;92.28
72409;BME280;60402;48.082;11.628;2023-02-18T05:23:44;96075.25;;;10.36;92.59
72409;BME280;60402;48.082;11.628;2023-02-18T05:26:10;96097.25;;;10.48;91.79
72409;BME280;60402;48.082;11.628;2023-02-18T05:28:35;96084.69;;;10.49;90.93
72409;BME280;60402;48.082;11.628;2023-02-18T05:31:00;96109.66;;;10.54;91.92
72409;BME280;60402;48.082;11.628;2023-02-18T05:33:26;96066.44;;;10.30;91.29
72409;BME280;60402;48.082;11.628;2023-02-18T05:35:51;96071.31;;;10.30;91.60
72409;BME280;60402;48.082;11.628;2023-02-18T05:38:16;96071.84;;;10.21;91.92
72409;BME280;60402;48.082;11.628;2023-02-18T05:40:42;96097.41;;;10.37;91.88
72409;BME280;60402;48.082;11.628;2023-02-18T05:43:07;96085.69;;;10.39;91.21
72409;BME280;60402;48.082;11.628;2023-02-18T05:45:32;96067.78;;;10.22;91.64
72409;BME280;60402;48.082;11.628;2023-02-18T05:47:58;96044.19;;;10.09;91.28
72409;BME280;60402;48.082;11.628;2023-02-18T05:50:23;96027.56;;;9.87;91.97
72409;BME280;60402;48.082;11.628;2023-02-18T05:52:48;96050.84;;;10.22;91.40
72409;BME280;60402;48.082;11.628;2023-02-18T05:55:14;96086.91;;;10.38;91.30
72409;BME280;60402;48.082;11.628;2023-02-18T05:57:39;96066.09;;;10.28;91.77
72409;BME280;60402;48.082;11.628;2023-02-18T06:00:05;96104.25;;;10.40;91.62
72409;BME280;60402;48.082;11.628;2023-02-18T06:02:33;96098.41;;;10.51;90.94
72409;BME280;60402;48.082;11.628;2023-02-18T06:04:58;96048.34;;;10.28;90.46
72409;BME280;60402;48.082;11.628;2023-02-18T06:07:23;96091.72;;;10.41;91.49
72409;BME280;60402;48.082;11.628;2023-02-18T06:09:49;96088.50;;;10.39;91.06
72409;BME280;60402;48.082;11.628;2023-02-18T06:12:14;96067.94;;;10.11;92.46
72409;BME280;60402;48.082;11.628;2023-02-18T06:14:39;96088.63;;;10.32;91.21
72409;BME280;60402;48.082;11.628;2023-02-18T06:17:07;96120.97;;;10.54;90.80
72409;BME280;60402;48.082;11.628;2023-02-18T06:19:33;96116.97;;;10.52;91.21
72409;BME280;60402;48.082;11.628;2023-02-18T06:21:59;96078.97;;;10.29;91.02
72409;BME280;60402;48.082;11.628;2023-02-18T06:24:24;96106.69;;;10.38;90.97
72409;BME280;60402;48.082;11.628;2023-02-18T06:26:50;96091.41;;;10.35;91.10
72409;BME280;60402;48.082;11.628;2023-02-18T06:29:15;96112.97;;;10.49;90.68
72409;BME280;60402;48.082;11.628;2023-02-18T06:31:40;96056.63;;;10.11;90.63
72409;BME280;60402;48.082;11.628;2023-02-18T06:34:05;96077.50;;;10.21;91.51
72409;BME280;60402;48.082;11.628;2023-02-18T06:36:31;96112.41;;;10.34;91.25
72409;BME280;60402;48.082;11.628;2023-02-18T06:38:56;96109.94;;;10.36;90.39
72409;BME280;60402;48.082;11.628;2023-02-18T06:41:23;96089.63;;;10.18;90.55
72409;BME280;60402;48.082;11.628;2023-02-18T06:43:49;96045.69;;;9.90;90.76
72409;BME280;60402;48.082;11.628;2023-02-18T06:46:14;96125.63;;;10.41;90.10
72409;BME280;60402;48.082;11.628;2023-02-18T06:48:39;96133.56;;;10.49;89.36
72409;BME280;60402;48.082;11.628;2023-02-18T06:51:05;96126.69;;;10.51;89.21
72409;BME280;60402;48.082;11.628;2023-02-18T06:53:30;96104.63;;;10.42;88.89
72409;BME280;60402;48.082;11.628;2023-02-18T06:55:56;96093.63;;;10.47;88.76
72409;BME280;60402;48.082;11.628;2023-02-18T06:58:21;96111.31;;;10.52;88.45
72409;BME280;60402;48.082;11.628;2023-02-18T07:00:47;96075.63;;;10.38;87.51
72409;BME280;60402;48.082;11.628;2023-02-18T07:03:13;96124.50;;;10.58;87.51
72409;BME280;60402;48.082;11.628;2023-02-18T07:05:39;96088.59;;;10.59;86.84
72409;BME280;60402;48.082;11.628;2023-02-18T07:08:04;96102.72;;;10.59;86.38
72409;BME280;60402;48.082;11.628;2023-02-18T07:10:30;96098.38;;;10.54;85.77
72409;BME280;60402;48.082;11.628;2023-02-18T07:12:55;96120.41;;;10.63;86.51
72409;BME280;60402;48.082;11.628;2023-02-18T07:15:20;96098.41;;;10.51;86.41
72409;BME280;60402;48.082;11.628;2023-02-18T07:17:51;96110.53;;;10.74;85.77
72409;BME280;60402;48.082;11.628;2023-02-18T07:20:17;96114.75;;;10.63;86.30
72409;BME280;60402;48.082;11.628;2023-02-18T07:22:42;96102.28;;;10.60;85.62
72409;BME280;60402;48.082;11.628;2023-02-18T07:25:08;96100.63;;;10.63;86.18
72409;BME280;60402;48.082;11.628;2023-02-18T07:27:33;96115.53;;;10.87;85.30
72409;BME280;60402;48.082;11.628;2023-02-18T07:29:58;96102.78;;;10.79;85.41
72409;BME280;60402;48.082;11.628;2023-02-18T07:32:24;96063.47;;;10.41;85.84
72409;BME280;60402;48.082;11.628;2023-02-18T07:34:52;96105.41;;;10.66;86.10
72409;BME280;60402;48.082;11.628;2023-02-18T07:37:20;96104.50;;;10.72;85.95
72409;BME280;60402;48.082;11.628;2023-02-18T07:39:46;96111.56;;;10.84;85.66
72409;BME280;60402;48.082;11.628;2023-02-18T07:42:11;96099.75;;;10.89;84.79
72409;BME280;60402;48.082;11.628;2023-02-18T07:44:39;96069.38;;;10.50;86.02
72409;BME280;60402;48.082;11.628;2023-02-18T07:47:06;96067.75;;;10.72;85.09
72409;BME280;60402;48.082;11.628;2023-02-18T07:49:32;96087.44;;;10.99;84.51
72409;BME280;60402;48.082;11.628;2023-02-18T07:51:58;96088.63;;;11.02;84.66
72409;BME280;60402;48.082;11.628;2023-02-18T07:54:24;95975.94;;;10.14;84.32
72409;BME280;60402;48.082;11.628;2023-02-18T07:56:50;96011.31;;;10.45;84.80
72409;BME280;60402;48.082;11.628;2023-02-18T07:59:17;96034.25;;;10.71;84.44
72409;BME280;60402;48.082;11.628;2023-02-18T08:01:43;96096.03;;;11.16;84.13
72409;BME280;60402;48.082;11.628;2023-02-18T08:04:08;96074.19;;;10.96;83.21
72409;BME280;60402;48.082;11.628;2023-02-18T08:06:36;96035.91;;;10.92;82.67
72409;BME280;60402;48.082;11.628;2023-02-18T08:09:02;96083.34;;;11.24;82.87
72409;BME280;60402;48.082;11.628;2023-02-18T08:11:27;96078.34;;;11.32;81.90
72409;BME280;60402;48.082;11.628;2023-02-18T08:13:53;96071.38;;;11.36;81.42
72409;BME280;60402;48.082;11.628;2023-02-18T08:16:20;96077.97;;;11.69;81.49
72409;BME280;60402;48.082;11.628;2023-02-18T08:18:46;96080.25;;;11.94;79.61
72409;BME280;60402;48.082;11.628;2023-02-18T08:21:13;96055.75;;;12.04;78.20
72409;BME280;60402;48.082;11.628;2023-02-18T08:23:38;96079.09;;;12.28;78.06
72409;BME280;60402;48.082;11.628;2023-02-18T08:26:04;96028.78;;;12.48;75.73
72409;BME280;60402;48.082;11.628;2023-02-18T08:28:29;95991.97;;;13.36;72.20
72409;BME280;60402;48.082;11.628;2023-02-18T08:30:54;95996.47;;;14.26;68.84
72409;BME280;60402;48.082;11.628;2023-02-18T08:33:21;96018.97;;;14.46;67.00
72409;BME280;60402;48.082;11.628;2023-02-18T08:35:48;96046.72;;;14.29;68.20
72409;BME280;60402;48.082;11.628;2023-02-18T08:38:14;96031.72;;;14.03;68.35
72409;BME280;60402;48.082;11.628;2023-02-18T08:40:39;96047.53;;;14.17;68.70
72409;BME280;60402;48.082;11.628;2023-02-18T08:43:05;96028.28;;;14.46;67.43
72409;BME280;60402;48.082;11.628;2023-02-18T08:45:31;96040.00;;;14.23;68.06
72409;BME280;60402;48.082;11.628;2023-02-18T08:47:57;96021.13;;;14.29;68.19
72409;BME280;60402;48.082;11.628;2023-02-18T08:50:22;96041.34;;;14.82;67.01
72409;BME280;60402;48.082;11.628;2023-02-18T08:52:51;96036.31;;;15.43;64.32
72409;BME280;60402;48.082;11.628;2023-02-18T08:55:17;95999.22;;;15.77;62.24
72409;BME280;60402;48.082;11.628;2023-02-18T08:57:45;96044.56;;;16.16;60.79
72409;BME280;60402;48.082;11.628;2023-02-18T09:00:11;96006.09;;;16.79;58.19
72409;BME280;60402;48.082;11.628;2023-02-18T09:02:37;96040.25;;;17.19;56.90
72409;BME280;60402;48.082;11.628;2023-02-18T09:05:03;96033.13;;;17.33;56.16
72409;BME280;60402;48.082;11.628;2023-02-18T09:07:28;96040.72;;;16.99;56.27
72409;BME280;60402;48.082;11.628;2023-02-18T09:09:54;96018.19;;;16.02;58.75
72409;BME280;60402;48.082;11.628;2023-02-18T09:12:19;96033.69;;;16.32;59.19
72409;BME280;60402;48.082;11.628;2023-02-18T09:14:46;96036.06;;;16.74;57.52
72409;BME280;60402;48.082;11.628;2023-02-18T09:17:12;96042.78;;;17.81;54.94
72409;BME280;60402;48.082;11.628;2023-02-18T09:19:37;96021.22;;;18.32;53.61
72409;BME280;60402;48.082;11.628;2023-02-18T09:22:02;96040.88;;;19.05;50.40
72409;BME280;60402;48.082;11.628;2023-02-18T09:24:28;96035.94;;;19.30;49.62
72409;BME280;60402;48.082;11.628;2023-02-18T09:26:53;96033.47;;;18.23;51.11
72409;BME280;60402;48.082;11.628;2023-02-18T09:29:19;96019.94;;;17.45;53.67
72409;BME280;60402;48.082;11.628;2023-02-18T09:31:44;96023.13;;;17.28;54.13
72409;BME280;60402;48.082;11.628;2023-02-18T09:34:10;96023.41;;;17.03;54.69
72409;BME280;60402;48.082;11.628;2023-02-18T09:36:35;96031.22;;;16.53;56.67
72409;BME280;60402;48.082;11.628;2023-02-18T09:39:00;96037.25;;;17.04;55.59
72409;BME280;60402;48.082;11.628;2023-02-18T09:41:33;96050.75;;;17.31;54.85
72409;BME280;60402;48.082;11.628;2023-02-18T09:44:03;96025.31;;;16.97;55.05
72409;BME280;60402;48.082;11.628;2023-02-18T09:46:33;96012.81;;;17.40;54.00
72409;BME280;60402;48.082;11.628;2023-02-18T09:49:06;95982.13;;;17.68;52.79
72409;BME280;60402;48.082;11.628;2023-02-18T09:51:37;95972.28;;;17.78;52.20
72409;BME280;60402;48.082;11.628;2023-02-18T09:54:02;96008.75;;;18.44;50.84
72409;BME280;60402;48.082;11.628;2023-02-18T09:56:31;95969.69;;;19.66;47.82
72409;BME280;60402;48.082;11.628;2023-02-18T09:58:58;95977.91;;;20.18;47.12
72409;BME280;60402;48.082;11.628;2023-02-18T10:01:30;95990.41;;;20.65;45.23
72409;BME280;60402;48.082;11.628;2023-02-18T10:04:03;95989.00;;;20.25;45.63
72409;BME280;60402;48.082;11.628;2023-02-18T10:06:32;95986.13;;;18.22;50.05
72409;BME280;60402;48.082;11.628;2023-02-18T10:09:04;95969.97;;;17.31;52.96
72409;BME280;60402;48.082;11.628;2023-02-18T10:11:34;95999.50;;;17.28;53.48
72409;BME280;60402;48.082;11.628;2023-02-18T10:14:02;95960.75;;;16.72;55.60
72409;BME280;60402;48.082;11.628;2023-02-18T10:16:29;95950.69;;;16.40;56.58
72409;BME280;60402;48.082;11.628;2023-02-18T10:19:00;95952.13;;;15.95;57.88
72409;BME280;60402;48.082;11.628;2023-02-18T10:21:32;95952.81;;;15.46;59.84
72409;BME280;60402;48.082;11.628;2023-02-18T10:24:24;95934.50;;;15.25;60.37
72409;BME280;60402;48.082;11.628;2023-02-18T10:26:51;95946.59;;;14.94;60.90
72409;BME280;60402;48.082;11.628;2023-02-18T10:29:18;95962.19;;;14.90;61.76
72409;BME280;60402;48.082;11.628;2023-02-18T10:32:23;95942.56;;;15.04;61.66
72409;BME280;60402;48.082;11.628;2023-02-18T10:37:46;95927.78;;;14.75;62.04
72409;BME280;60402;48.082;11.628;2023-02-18T10:48:31;95920.78;;;14.89;62.15
72409;BME280;60402;48.082;11.628;2023-02-18T10:51:11;95925.88;;;14.94;62.71
72409;BME280;60402;48.082;11.628;2023-02-18T10:53:40;95897.28;;;14.75;62.01
72409;BME280;60402;48.082;11.628;2023-02-18T10:56:07;95891.41;;;14.70;61.44
72409;BME280;60402;48.082;11.628;2023-02-18T10:58:41;95919.03;;;14.91;61.27
72409;BME280;60402;48.082;11.628;2023-02-18T11:01:14;95903.25;;;14.90;61.19
72409;BME280;60402;48.082;11.628;2023-02-18T11:03:48;95897.56;;;15.12;61.11
72409;BME280;60402;48.082;11.628;2023-02-18T11:06:18;95890.06;;;15.05;61.41
72409;BME280;60402;48.082;11.628;2023-02-18T11:08:45;95879.03;;;14.86;62.01
72409;BME280;60402;48.082;11.628;2023-02-18T11:11:21;95860.75;;;14.96;61.92
72409;BME280;60402;48.082;11.628;2023-02-18T11:13:55;95854.25;;;14.95;60.56
72409;BME280;60402;48.082;11.628;2023-02-18T11:16:24;95832.13;;;14.68;61.29
72409;BME280;60402;48.082;11.628;2023-02-18T11:19:00;95839.66;;;14.84;61.33
72409;BME280;60402;48.082;11.628;2023-02-18T11:21:31;95843.84;;;14.92;61.32
72409;BME280;60402;48.082;11.628;2023-02-18T11:24:09;95839.88;;;15.21;61.58
72409;BME280;60402;48.082;11.628;2023-02-18T11:26:35;95840.97;;;15.23;60.87
72409;BME280;60402;48.082;11.628;2023-02-18T11:29:18;95841.78;;;15.55;59.84
72409;BME280;60402;48.082;11.628;2023-02-18T11:31:50;95842.69;;;15.52;59.61
72409;BME280;60402;48.082;11.628;2023-02-18T11:34:22;95824.66;;;15.46;59.22
72409;BME280;60402;48.082;11.628;2023-02-18T11:36:51;95830.25;;;15.58;59.26
72409;BME280;60402;48.082;11.628;2023-02-18T11:39:22;95846.16;;;15.47;58.54
72409;BME280;60402;48.082;11.628;2023-02-18T11:47:01;95831.22;;;15.33;58.31
72409;BME280;60402;48.082;11.628;2023-02-18T11:49:28;95818.50;;;15.16;58.60
72409;BME280;60402;48.082;11.628;2023-02-18T11:51:55;95832.19;;;15.30;58.49
72409;BME280;60402;48.082;11.628;2023-02-18T11:54:29;95824.50;;;15.18;58.86
72409;BME280;60402;48.082;11.628;2023-02-18T11:57:11;95816.81;;;15.28;58.96
72409;BME280;60402;48.082;11.628;2023-02-18T11:59:39;95801.00;;;15.27;59.20
72409;BME280;60402;48.082;11.628;2023-02-18T12:04:45;95800.59;;;15.47;58.31
72409;BME280;60402;48.082;11.628;2023-02-18T12:07:18;95800.09;;;15.39;58.57
72409;BME280;60402;48.082;11.628;2023-02-18T12:09:48;95795.34;;;15.36;57.94
72409;BME280;60402;48.082;11.628;2023-02-18T12:12:19;95766.13;;;15.14;58.63
72409;BME280;60402;48.082;11.628;2023-02-18T12:14:48;95785.19;;;15.26;57.99
72409;BME280;60402;48.082;11.628;2023-02-18T12:17:44;95751.13;;;15.13;58.49
72409;BME280;60402;48.082;11.628;2023-02-18T12:20:19;95777.78;;;15.38;58.27
72409;BME280;60402;48.082;11.628;2023-02-18T12:25:46;95776.50;;;15.29;59.06
72409;BME280;60402;48.082;11.628;2023-02-18T12:42:28;95750.28;;;15.44;58.13
72409;BME280;60402;48.082;11.628;2023-02-18T12:50:47;95733.53;;;15.05;58.52
72409;BME280;60402;48.082;11.628;2023-02-18T12:53:37;95759.84;;;15.19;58.33
72409;BME280;60402;48.082;11.628;2023-02-18T13:01:52;95758.66;;;14.98;58.32
72409;BME280;60402;48.082;11.628;2023-02-18T13:13:07;95686.03;;;14.84;59.33
72409;BME280;60402;48.082;11.628;2023-02-18T13:15:40;95745.91;;;15.12;59.60
72409;BME280;60402;48.082;11.628;2023-02-18T13:18:15;95699.13;;;14.81;58.87
72409;BME280;60402;48.082;11.628;2023-02-18T13:20:50;95738.03;;;15.16;59.06
72409;BME280;60402;48.082;11.628;2023-02-18T13:23:21;95735.75;;;15.01;59.54
72409;BME280;60402;48.082;11.628;2023-02-18T13:25:52;95707.88;;;14.87;59.49
72409;BME280;60402;48.082;11.628;2023-02-18T13:28:24;95726.63;;;15.16;59.20
72409;BME280;60402;48.082;11.628;2023-02-18T13:31:24;95705.34;;;14.89;59.35
72409;BME280;60402;48.082;11.628;2023-02-18T13:34:03;95728.88;;;14.90;59.25
72409;BME280;60402;48.082;11.628;2023-02-18T13:52:37;95735.06;;;14.88;60.78
72409;BME280;60402;48.082;11.628;2023-02-18T14:09:41;95736.69;;;14.45;63.66
72409;BME280;60402;48.082;11.628;2023-02-18T15:38:04;95763.56;;;13.27;63.33
72409;BME280;60402;48.082;11.628;2023-02-18T16:05:14;95719.03;;;12.48;64.12
72409;BME280;60402;48.082;11.628;2023-02-18T16:07:58;95753.75;;;12.65;63.63
72409;BME280;60402;48.082;11.628;2023-02-18T16:10:41;95731.75;;;12.69;62.85
72409;BME280;60402;48.082;11.628;2023-02-18T16:13:13;95758.38;;;12.59;63.00
72409;BME280;60402;48.082;11.628;2023-02-18T16:15:41;95748.97;;;12.49;63.77
72409;BME280;60402;48.082;11.628;2023-02-18T16:18:20;95744.75;;;12.41;63.74
72409;BME280;60402;48.082;11.628;2023-02-18T16:20:56;95759.50;;;12.48;64.00
72409;BME280;60402;48.082;11.628;2023-02-18T16:23:40;95760.31;;;12.49;63.51
72409;BME280;60402;48.082;11.628;2023-02-18T16:28:42;95742.47;;;12.36;64.43
72409;BME280;60402;48.082;11.628;2023-02-18T16:31:08;95755.50;;;12.33;64.75
72409;BME280;60402;48.082;11.628;2023-02-18T16:33:33;95750.41;;;12.28;64.63
72409;BME280;60402;48.082;11.628;2023-02-18T16:35:58;95719.53;;;12.05;64.29
72409;BME280;60402;48.082;11.628;2023-02-18T16:38:24;95746.88;;;12.24;64.78
72409;BME280;60402;48.082;11.628;2023-02-18T16:40:50;95753.88;;;12.19;64.84
72409;BME280;60402;48.082;11.628;2023-02-18T16:43:22;95734.63;;;12.14;64.55
72409;BME280;60402;48.082;11.628;2023-02-18T16:45:50;95755.09;;;12.18;64.98
72409;BME280;60402;48.082;11.628;2023-02-18T16:48:20;95743.91;;;12.15;65.01
72409;BME280;60402;48.082;11.628;2023-02-18T16:50:49;95739.34;;;12.05;64.90
72409;BME280;60402;48.082;11.628;2023-02-18T16:53:15;95736.16;;;12.02;64.85